createdAt,value
2023-05-08T00:00:08.854Z,15.10
2023-05-08T00:02:35.481Z,15.06
2023-05-08T00:05:02.249Z,15.02
2023-05-08T00:07:28.820Z,15.00
2023-05-08T00:09:55.512Z,14.96
2023-05-08T00:12:22.106Z,15.06
2023-05-08T00:14:48.596Z,14.99
2023-05-08T00:17:15.156Z,14.83
2023-05-08T00:19:41.650Z,14.94
2023-05-08T00:22:08.165Z,14.88
2023-05-08T00:24:34.701Z,14.77
2023-05-08T00:27:01.442Z,14.76
2023-05-08T00:29:28.031Z,14.89
2023-05-08T00:31:55.012Z,14.76
2023-05-08T00:34:21.778Z,14.78
2023-05-08T00:36:48.272Z,14.73
2023-05-08T00:39:14.798Z,14.63
2023-05-08T00:41:41.271Z,14.59
2023-05-08T00:44:08.370Z,14.56
2023-05-08T00:46:36.585Z,14.67
2023-05-08T00:49:04.985Z,14.54
2023-05-08T00:51:32.137Z,14.54
2023-05-08T00:54:00.016Z,14.60
2023-05-08T00:56:28.321Z,14.62
2023-05-08T00:58:55.066Z,14.54
2023-05-08T01:01:21.792Z,14.50
2023-05-08T01:03:48.690Z,14.48
2023-05-08T01:06:15.490Z,14.53
2023-05-08T01:08:45.597Z,14.56
2023-05-08T01:11:30.117Z,14.53
2023-05-08T01:14:29.872Z,14.55
2023-05-08T01:17:08.253Z,14.58
2023-05-08T01:20:04.811Z,14.65
2023-05-08T01:22:52.488Z,14.65
2023-05-08T01:25:40.354Z,14.55
2023-05-08T01:28:27.039Z,14.54
2023-05-08T01:31:02.585Z,14.56
2023-05-08T01:33:57.134Z,14.58
2023-05-08T01:36:48.137Z,14.57
2023-05-08T01:39:21.620Z,14.66
2023-05-08T01:42:02.379Z,14.61
2023-05-08T01:44:34.159Z,14.61
2023-05-08T01:47:07.270Z,14.66
2023-05-08T01:50:08.858Z,14.53
2023-05-08T01:52:42.024Z,14.52
2023-05-08T01:55:12.132Z,14.55
2023-05-08T01:57:45.217Z,14.65
2023-05-08T02:00:13.413Z,14.67
2023-05-08T02:02:41.140Z,14.74
2023-05-08T02:05:08.832Z,14.49
2023-05-08T02:07:38.253Z,14.51
2023-05-08T02:10:06.387Z,14.63
2023-05-08T02:12:34.395Z,14.54
2023-05-08T02:15:03.190Z,14.52
2023-05-08T02:17:32.300Z,14.68
2023-05-08T02:20:02.609Z,14.60
2023-05-08T02:22:32.667Z,14.56
2023-05-08T02:24:59.306Z,14.61
2023-05-08T02:27:27.903Z,14.51
2023-05-08T02:29:55.774Z,14.58
2023-05-08T02:32:25.667Z,14.65
2023-05-08T02:35:02.528Z,14.57
2023-05-08T02:37:32.197Z,14.65
2023-05-08T02:39:59.298Z,14.45
2023-05-08T02:42:25.886Z,14.46
2023-05-08T02:44:52.484Z,14.49
2023-05-08T02:47:51.011Z,14.51
2023-05-08T02:50:38.779Z,14.43
2023-05-08T02:53:10.035Z,14.38
2023-05-08T02:55:53.019Z,14.49
2023-05-08T02:58:25.112Z,14.37
2023-05-08T03:01:06.512Z,14.45
2023-05-08T03:03:40.745Z,14.44
2023-05-08T03:06:14.918Z,14.47
2023-05-08T03:08:43.369Z,14.34
2023-05-08T03:11:16.152Z,14.35
2023-05-08T03:13:46.725Z,14.31
2023-05-08T03:16:20.358Z,14.25
2023-05-08T03:18:52.168Z,14.31
2023-05-08T03:21:21.256Z,14.33
2023-05-08T03:23:49.586Z,14.18
2023-05-08T03:26:19.718Z,14.31
2023-05-08T03:28:50.375Z,14.22
2023-05-08T03:31:20.916Z,14.13
2023-05-08T03:33:49.062Z,14.16
2023-05-08T03:36:16.123Z,14.04
2023-05-08T03:38:43.011Z,14.15
2023-05-08T03:41:11.585Z,14.22
2023-05-08T03:43:38.688Z,13.98
2023-05-08T03:46:07.418Z,14.05
2023-05-08T03:48:35.060Z,14.31
2023-05-08T03:51:02.792Z,14.27
2023-05-08T03:53:30.828Z,14.27
2023-05-08T03:55:59.020Z,14.18
2023-05-08T03:58:34.529Z,13.97
2023-05-08T04:01:34.910Z,13.91
2023-05-08T04:04:03.995Z,14.07
2023-05-08T04:06:51.332Z,13.93
2023-05-08T04:09:32.440Z,13.92
2023-05-08T04:12:15.945Z,13.83
2023-05-08T04:14:56.205Z,13.83
2023-05-08T04:17:33.479Z,13.79
2023-05-08T04:20:05.057Z,13.76
2023-05-08T04:22:34.650Z,13.75
2023-05-08T04:25:06.736Z,13.83
2023-05-08T04:27:34.871Z,13.94
2023-05-08T04:30:01.736Z,13.91
2023-05-08T04:32:30.207Z,13.77
2023-05-08T04:34:56.859Z,13.82
2023-05-08T04:37:24.607Z,13.71
2023-05-08T04:39:51.721Z,13.66
2023-05-08T04:42:18.548Z,13.71
2023-05-08T04:44:45.214Z,13.80
2023-05-08T04:47:11.706Z,13.74
2023-05-08T04:49:38.195Z,13.66
2023-05-08T04:52:04.924Z,13.70
2023-05-08T04:54:31.455Z,13.74
2023-05-08T04:56:58.379Z,13.71
2023-05-08T04:59:25.206Z,13.81
2023-05-08T05:01:52.047Z,13.74
2023-05-08T05:04:18.847Z,13.80
2023-05-08T05:06:45.400Z,13.75
2023-05-08T05:09:12.342Z,13.90
2023-05-08T05:11:38.870Z,13.74
2023-05-08T05:14:06.287Z,13.75
2023-05-08T05:16:33.556Z,13.79
2023-05-08T05:19:00.151Z,13.90
2023-05-08T05:21:27.951Z,13.93
2023-05-08T05:23:54.498Z,13.95
2023-05-08T05:26:21.727Z,13.89
2023-05-08T05:28:48.681Z,13.94
2023-05-08T05:31:15.449Z,13.88
2023-05-08T05:33:43.186Z,13.85
2023-05-08T05:36:09.780Z,13.93
2023-05-08T05:38:36.725Z,13.79
2023-05-08T05:41:03.535Z,13.79
2023-05-08T05:43:30.042Z,13.77
2023-05-08T05:45:56.879Z,13.82
2023-05-08T05:48:23.382Z,13.92
2023-05-08T05:50:49.935Z,14.12
2023-05-08T05:53:16.557Z,13.92
2023-05-08T05:55:43.508Z,14.04
2023-05-08T05:58:10.057Z,13.80
2023-05-08T06:00:36.717Z,13.80
2023-05-08T06:03:03.861Z,13.72
2023-05-08T06:05:30.532Z,13.91
2023-05-08T06:07:57.314Z,13.94
2023-05-08T06:10:24.101Z,13.85
2023-05-08T06:12:50.661Z,13.99
2023-05-08T06:15:17.415Z,14.00
2023-05-08T06:17:44.183Z,14.20
2023-05-08T06:20:11.184Z,14.36
2023-05-08T06:22:39.302Z,14.17
2023-05-08T06:25:07.174Z,14.39
2023-05-08T06:27:34.801Z,14.49
2023-05-08T06:30:02.457Z,14.41
2023-05-08T06:32:28.948Z,14.37
2023-05-08T06:34:55.523Z,14.55
2023-05-08T06:37:22.516Z,14.57
2023-05-08T06:39:52.470Z,14.81
2023-05-08T06:42:24.135Z,14.71
2023-05-08T06:44:53.583Z,14.55
2023-05-08T06:47:20.852Z,14.64
2023-05-08T06:49:47.731Z,14.55
2023-05-08T06:52:14.349Z,14.44
2023-05-08T06:54:42.051Z,14.36
2023-05-08T06:57:08.880Z,14.41
2023-05-08T06:59:35.434Z,14.34
2023-05-08T07:02:02.108Z,14.52
2023-05-08T07:04:30.858Z,14.59
2023-05-08T07:06:58.657Z,14.80
2023-05-08T07:09:25.165Z,14.99
2023-05-08T07:11:51.708Z,15.24
2023-05-08T07:14:18.799Z,14.94
2023-05-08T07:16:45.412Z,14.92
2023-05-08T07:19:12.067Z,14.66
2023-05-08T07:21:39.303Z,14.73
2023-05-08T07:24:06.286Z,14.73
2023-05-08T07:26:32.796Z,14.77
2023-05-08T07:28:59.830Z,14.95
2023-05-08T07:31:26.457Z,15.03
2023-05-08T07:33:53.056Z,14.93
2023-05-08T07:36:19.732Z,14.95
2023-05-08T07:38:46.322Z,14.86
2023-05-08T07:41:12.973Z,15.15
2023-05-08T07:43:39.627Z,15.25
2023-05-08T07:46:06.661Z,15.20
2023-05-08T07:48:33.222Z,15.19
2023-05-08T07:50:59.717Z,15.11
2023-05-08T07:53:26.204Z,15.28
2023-05-08T07:55:52.871Z,15.32
2023-05-08T07:58:20.480Z,15.30
2023-05-08T08:00:48.225Z,15.38
2023-05-08T08:03:14.873Z,15.41
2023-05-08T08:05:42.043Z,15.56
2023-05-08T08:08:08.534Z,15.55
2023-05-08T08:10:35.163Z,15.75
2023-05-08T08:13:02.022Z,15.61
2023-05-08T08:15:28.808Z,15.72
2023-05-08T08:17:55.628Z,15.57
2023-05-08T08:20:23.240Z,15.71
2023-05-08T08:22:49.991Z,15.83
2023-05-08T08:25:16.767Z,15.89
2023-05-08T08:27:43.261Z,16.15
2023-05-08T08:30:17.473Z,15.84
2023-05-08T08:32:45.515Z,16.10
2023-05-08T08:35:12.552Z,16.06
2023-05-08T08:37:39.325Z,15.89
2023-05-08T08:40:06.758Z,16.14
2023-05-08T08:42:33.685Z,16.15
2023-05-08T08:45:01.193Z,16.04
2023-05-08T08:47:29.868Z,16.23
2023-05-08T08:50:02.198Z,16.36
2023-05-08T08:52:48.174Z,16.43
2023-05-08T08:55:20.467Z,16.27
2023-05-08T08:58:14.723Z,16.42
2023-05-08T09:00:41.829Z,16.65
2023-05-08T09:03:08.537Z,16.69
2023-05-08T09:05:35.626Z,16.69
2023-05-08T09:08:02.806Z,16.63
2023-05-08T09:10:29.375Z,16.56
2023-05-08T09:12:55.948Z,16.83
2023-05-08T09:15:22.559Z,16.78
2023-05-08T09:17:49.277Z,17.03
2023-05-08T09:20:18.880Z,16.80
2023-05-08T09:22:46.300Z,17.25
2023-05-08T09:25:13.055Z,17.21
2023-05-08T09:27:39.895Z,17.35
2023-05-08T09:30:08.440Z,17.01
2023-05-08T09:32:37.255Z,17.33
2023-05-08T09:35:05.197Z,16.91
2023-05-08T09:37:32.064Z,16.87
2023-05-08T09:40:25.323Z,16.88
2023-05-08T09:42:52.157Z,17.31
2023-05-08T09:45:32.797Z,17.23
2023-05-08T09:47:59.493Z,16.91
2023-05-08T09:50:26.602Z,16.92
2023-05-08T09:52:53.330Z,17.14
2023-05-08T09:55:20.225Z,17.38
2023-05-08T09:58:00.125Z,17.50
2023-05-08T10:00:28.258Z,17.48
2023-05-08T10:03:02.596Z,17.51
2023-05-08T10:05:32.840Z,17.62
2023-05-08T10:08:17.683Z,18.07
2023-05-08T10:10:44.194Z,17.51
2023-05-08T10:13:10.828Z,17.20
2023-05-08T10:15:38.601Z,17.83
2023-05-08T10:18:07.767Z,17.66
2023-05-08T10:20:38.935Z,17.84
2023-05-08T10:23:11.896Z,17.89
2023-05-08T10:25:44.802Z,18.45
2023-05-08T10:28:29.869Z,18.43
2023-05-08T10:31:01.563Z,18.84
2023-05-08T10:33:33.712Z,18.34
2023-05-08T10:36:01.044Z,18.50
2023-05-08T10:38:27.770Z,18.08
2023-05-08T10:40:58.091Z,18.26
2023-05-08T10:43:25.580Z,17.94
2023-05-08T10:45:53.854Z,17.92
2023-05-08T10:48:55.695Z,18.20
2023-05-08T10:51:35.556Z,18.08
2023-05-08T10:54:11.063Z,17.97
2023-05-08T10:56:39.411Z,18.03
2023-05-08T10:59:06.800Z,18.10
2023-05-08T11:01:33.336Z,18.24
2023-05-08T11:04:00.020Z,17.95
2023-05-08T11:06:46.657Z,18.05
2023-05-08T11:09:27.305Z,18.46
2023-05-08T11:12:08.739Z,18.56
2023-05-08T11:14:38.210Z,18.85
2023-05-08T11:17:05.847Z,19.20
2023-05-08T11:19:33.203Z,18.49
2023-05-08T11:22:17.237Z,18.66
2023-05-08T11:24:59.077Z,18.58
2023-05-08T11:27:41.156Z,18.62
2023-05-08T11:30:24.276Z,18.44
2023-05-08T11:33:08.972Z,18.81
2023-05-08T11:35:47.462Z,18.50
2023-05-08T11:38:18.609Z,18.84
2023-05-08T11:40:47.510Z,18.69
2023-05-08T11:43:43.007Z,18.93
2023-05-08T11:46:13.278Z,18.73
2023-05-08T11:48:40.494Z,18.59
2023-05-08T11:51:07.023Z,18.84
2023-05-08T11:53:36.414Z,18.68
2023-05-08T11:56:03.913Z,18.47
2023-05-08T11:58:31.125Z,18.57
2023-05-08T12:00:58.026Z,18.92
2023-05-08T12:03:25.468Z,19.12
2023-05-08T12:05:56.431Z,19.02
2023-05-08T12:08:23.614Z,19.06
2023-05-08T12:10:51.957Z,18.76
2023-05-08T12:13:22.574Z,18.72
2023-05-08T12:15:54.967Z,18.90
2023-05-08T12:18:22.571Z,19.11
2023-05-08T12:21:00.310Z,18.82
2023-05-08T12:23:29.383Z,18.92
2023-05-08T12:25:59.631Z,18.73
2023-05-08T12:28:26.254Z,18.83
2023-05-08T12:30:53.756Z,18.90
2023-05-08T12:33:20.990Z,19.34
2023-05-08T12:35:47.937Z,19.22
2023-05-08T12:38:15.509Z,19.26
2023-05-08T12:40:48.983Z,19.27
2023-05-08T12:43:15.545Z,18.99
2023-05-08T12:45:42.923Z,18.64
2023-05-08T12:48:13.807Z,18.68
2023-05-08T12:50:42.506Z,18.89
2023-05-08T12:53:11.352Z,18.88
2023-05-08T12:55:39.506Z,18.64
2023-05-08T12:58:15.252Z,18.57
2023-05-08T13:00:52.395Z,18.67
2023-05-08T13:03:27.189Z,18.80
2023-05-08T13:05:56.196Z,19.02
2023-05-08T13:08:39.194Z,19.02
2023-05-08T13:11:06.680Z,18.85
2023-05-08T13:13:36.281Z,19.07
2023-05-08T13:16:04.794Z,19.22
2023-05-08T13:18:31.807Z,19.24
2023-05-08T13:20:58.593Z,19.41
2023-05-08T13:23:25.304Z,19.59
2023-05-08T13:25:51.852Z,19.57
2023-05-08T13:28:18.378Z,19.71
2023-05-08T13:30:44.879Z,19.66
2023-05-08T13:33:11.438Z,19.44
2023-05-08T13:35:38.245Z,19.16
2023-05-08T13:38:04.878Z,19.23
2023-05-08T13:40:31.510Z,19.16
2023-05-08T13:42:58.097Z,19.39
2023-05-08T13:45:24.891Z,19.23
2023-05-08T13:47:51.582Z,19.36
2023-05-08T13:50:22.323Z,19.75
2023-05-08T13:52:50.170Z,19.48
2023-05-08T13:55:19.552Z,19.67
2023-05-08T13:57:46.161Z,19.77
2023-05-08T14:00:13.257Z,19.58
2023-05-08T14:02:39.966Z,19.70
2023-05-08T14:05:09.926Z,19.74
2023-05-08T14:07:36.863Z,19.59
2023-05-08T14:10:04.135Z,19.90
2023-05-08T14:12:31.042Z,19.82
2023-05-08T14:14:58.219Z,19.98
2023-05-08T14:17:24.902Z,19.70
2023-05-08T14:19:51.567Z,20.06
2023-05-08T14:22:18.236Z,19.78
2023-05-08T14:24:44.853Z,19.90
2023-05-08T14:27:12.132Z,20.03
2023-05-08T14:29:38.936Z,20.08
2023-05-08T14:32:06.252Z,20.05
2023-05-08T14:34:32.959Z,20.05
2023-05-08T14:36:59.691Z,20.13
2023-05-08T14:39:26.439Z,20.21
2023-05-08T14:44:22.707Z,20.20
2023-05-08T14:46:49.710Z,20.06
2023-05-08T14:49:25.331Z,20.34
2023-05-08T14:51:55.683Z,20.45
2023-05-08T14:54:22.322Z,20.61
2023-05-08T14:56:49.217Z,20.75
2023-05-08T14:59:15.982Z,20.30
2023-05-08T15:01:43.241Z,20.25
2023-05-08T15:04:11.280Z,20.33
2023-05-08T15:06:40.438Z,20.68
2023-05-08T15:09:08.899Z,20.70
2023-05-08T15:11:36.974Z,20.79
2023-05-08T15:14:04.509Z,21.14
2023-05-08T15:16:31.264Z,21.40
2023-05-08T15:18:58.238Z,21.62
2023-05-08T15:21:26.842Z,21.88
2023-05-08T15:23:56.384Z,21.37
2023-05-08T15:26:23.245Z,21.37
2023-05-08T15:28:49.923Z,21.88
2023-05-08T15:31:17.528Z,22.50
2023-05-08T15:33:45.204Z,22.11
2023-05-08T15:36:13.675Z,22.34
2023-05-08T15:38:41.386Z,22.74
2023-05-08T15:41:14.604Z,22.79
2023-05-08T15:43:42.106Z,22.97
2023-05-08T15:46:08.763Z,22.54
2023-05-08T15:48:35.665Z,22.89
2023-05-08T15:51:02.616Z,22.97
2023-05-08T15:53:29.367Z,23.23
2023-05-08T15:55:57.062Z,23.00
2023-05-08T15:58:24.304Z,22.75
2023-05-08T16:00:50.983Z,23.63
2023-05-08T16:03:18.114Z,23.58
2023-05-08T16:05:45.046Z,23.32
2023-05-08T16:08:13.084Z,23.16
2023-05-08T16:10:41.272Z,22.78
2023-05-08T16:13:08.652Z,22.98
2023-05-08T16:15:35.530Z,22.93
2023-05-08T16:18:02.928Z,23.93
2023-05-08T16:20:29.695Z,23.27
2023-05-08T16:22:56.471Z,22.83
2023-05-08T16:25:24.136Z,23.47
2023-05-08T16:27:51.377Z,24.14
2023-05-08T16:30:18.307Z,24.57
2023-05-08T16:32:46.127Z,24.00
2023-05-08T16:35:13.071Z,23.69
2023-05-08T16:37:40.131Z,23.99
2023-05-08T16:40:08.301Z,23.28
2023-05-08T16:42:35.355Z,24.00
2023-05-08T16:45:02.202Z,23.61
2023-05-08T16:47:28.766Z,23.62
2023-05-08T16:49:55.912Z,23.65
2023-05-08T16:52:22.463Z,23.51
2023-05-08T16:54:49.030Z,23.51
2023-05-08T16:57:15.677Z,22.65
2023-05-08T16:59:42.467Z,23.51
2023-05-08T17:02:09.154Z,23.13
2023-05-08T17:04:36.398Z,22.36
2023-05-08T17:07:05.051Z,22.89
2023-05-08T17:09:33.084Z,22.81
2023-05-08T17:12:01.877Z,23.75
2023-05-08T17:14:28.371Z,24.21
2023-05-08T17:16:54.877Z,23.29
2023-05-08T17:19:22.006Z,22.98
2023-05-08T17:21:48.508Z,23.40
2023-05-08T17:24:15.055Z,22.96
2023-05-08T17:26:41.605Z,23.93
2023-05-08T17:29:08.373Z,23.35
2023-05-08T17:31:35.045Z,22.30
2023-05-08T17:34:01.651Z,22.27
2023-05-08T17:36:28.303Z,21.96
2023-05-08T17:38:55.476Z,21.91
2023-05-08T17:41:23.149Z,21.22
2023-05-08T17:43:49.659Z,20.64
2023-05-08T17:46:16.244Z,21.13
2023-05-08T17:48:42.809Z,21.58
2023-05-08T17:51:12.295Z,21.74
2023-05-08T17:53:39.535Z,21.84
2023-05-08T17:56:06.988Z,22.02
2023-05-08T17:58:33.597Z,21.23
2023-05-08T18:01:00.292Z,21.11
2023-05-08T18:03:27.050Z,21.09
2023-05-08T18:05:53.830Z,20.61
2023-05-08T18:08:20.708Z,20.52
2023-05-08T18:10:47.216Z,20.37
2023-05-08T18:13:13.719Z,20.16
2023-05-08T18:15:40.733Z,20.30
2023-05-08T18:18:07.342Z,19.94
2023-05-08T18:20:33.958Z,19.87
2023-05-08T18:23:00.762Z,19.61
2023-05-08T18:25:27.300Z,19.45
2023-05-08T18:27:53.816Z,19.51
2023-05-08T18:30:20.511Z,19.55
2023-05-08T18:32:47.039Z,19.37
2023-05-08T18:35:13.630Z,19.38
2023-05-08T18:37:40.216Z,19.28
2023-05-08T18:40:07.606Z,19.29
2023-05-08T18:42:34.181Z,19.28
2023-05-08T18:45:00.844Z,19.37
2023-05-08T18:47:28.145Z,19.26
2023-05-08T18:49:57.297Z,19.32
2023-05-08T18:52:23.809Z,19.31
2023-05-08T18:54:50.412Z,19.26
2023-05-08T18:57:17.216Z,19.19
2023-05-08T18:59:43.903Z,19.21
2023-05-08T19:02:10.828Z,19.20
2023-05-08T19:04:37.412Z,19.17
2023-05-08T19:07:03.934Z,18.95
2023-05-08T19:09:30.461Z,18.92
2023-05-08T19:11:57.081Z,18.97
2023-05-08T19:14:23.642Z,18.79
2023-05-08T19:16:50.148Z,18.80
2023-05-08T19:19:16.892Z,18.74
2023-05-08T19:21:43.453Z,18.63
2023-05-08T19:24:10.025Z,18.72
2023-05-08T19:26:36.533Z,18.62
2023-05-08T19:29:03.092Z,18.74
2023-05-08T19:31:29.704Z,18.74
2023-05-08T19:33:57.326Z,18.62
2023-05-08T19:36:24.028Z,18.59
2023-05-08T19:38:50.570Z,18.54
2023-05-08T19:41:17.932Z,18.61
2023-05-08T19:43:44.509Z,18.47
2023-05-08T19:46:11.135Z,18.50
2023-05-08T19:48:37.991Z,18.41
2023-05-08T19:51:08.661Z,18.49
2023-05-08T19:53:35.790Z,18.60
2023-05-08T19:56:02.588Z,18.68
2023-05-08T19:58:29.262Z,18.67
2023-05-08T20:00:56.135Z,18.53
2023-05-08T20:03:22.841Z,18.50
2023-05-08T20:05:51.758Z,18.43
2023-05-08T20:08:18.849Z,18.38
2023-05-08T20:10:48.973Z,18.32
2023-05-08T20:13:17.214Z,18.23
2023-05-08T20:15:43.883Z,18.25
2023-05-08T20:18:10.748Z,18.24
2023-05-08T20:20:37.276Z,18.23
2023-05-08T20:23:04.460Z,18.32
2023-05-08T20:25:31.442Z,18.29
2023-05-08T20:27:58.046Z,18.41
2023-05-08T20:30:24.720Z,18.33
2023-05-08T20:32:51.444Z,18.37
2023-05-08T20:35:18.099Z,18.39
2023-05-08T20:37:46.188Z,18.36
2023-05-08T20:40:13.277Z,18.27
2023-05-08T20:42:43.172Z,18.14
2023-05-08T20:45:10.220Z,18.07
2023-05-08T20:47:37.170Z,18.08
2023-05-08T20:50:04.994Z,18.10
2023-05-08T20:52:32.436Z,18.15
2023-05-08T20:54:59.659Z,18.05
2023-05-08T20:57:26.554Z,18.01
2023-05-08T20:59:53.135Z,18.00
2023-05-08T21:02:19.721Z,18.03
2023-05-08T21:04:46.349Z,18.02
2023-05-08T21:07:13.069Z,18.05
2023-05-08T21:09:39.672Z,18.00
2023-05-08T21:12:06.592Z,17.99
2023-05-08T21:14:33.189Z,17.95
2023-05-08T21:16:59.825Z,17.97
2023-05-08T21:19:26.489Z,17.95
2023-05-08T21:21:53.025Z,17.90
2023-05-08T21:24:19.543Z,17.93
2023-05-08T21:26:46.030Z,17.94
2023-05-08T21:29:12.676Z,17.92
2023-05-08T21:31:39.382Z,17.93
2023-05-08T21:34:07.153Z,17.91
2023-05-08T21:36:35.429Z,17.89
2023-05-08T21:39:03.247Z,17.82
2023-05-08T21:41:30.208Z,17.78
2023-05-08T21:43:56.724Z,17.81
2023-05-08T21:46:23.303Z,17.84
2023-05-08T21:48:49.832Z,17.76
2023-05-08T21:51:16.442Z,17.73
2023-05-08T21:53:43.152Z,17.70
2023-05-08T21:56:09.768Z,17.70
2023-05-08T21:58:37.008Z,17.72
2023-05-08T22:01:03.567Z,17.71
2023-05-08T22:03:30.790Z,17.67
2023-05-08T22:05:57.401Z,17.65
2023-05-08T22:08:24.000Z,17.58
2023-05-08T22:10:50.831Z,17.49
2023-05-08T22:13:17.406Z,17.38
2023-05-08T22:15:44.214Z,17.46
2023-05-08T22:18:10.761Z,17.37
2023-05-08T22:20:37.278Z,17.34
2023-05-08T22:23:03.766Z,17.35
2023-05-08T22:25:30.370Z,17.31
2023-05-08T22:27:56.940Z,17.25
2023-05-08T22:30:23.510Z,17.27
2023-05-08T22:32:55.533Z,17.29
2023-05-08T22:35:24.478Z,17.28
2023-05-08T22:37:54.499Z,17.34
2023-05-08T22:40:21.677Z,17.28
2023-05-08T22:42:51.300Z,17.26
2023-05-08T22:45:18.139Z,17.28
2023-05-08T22:47:44.907Z,17.31
2023-05-08T22:50:11.757Z,17.29
2023-05-08T22:52:39.484Z,17.18
2023-05-08T22:55:06.667Z,17.22
2023-05-08T22:57:33.357Z,17.25
2023-05-08T22:59:59.977Z,17.17
2023-05-08T23:02:32.474Z,17.17
2023-05-08T23:05:00.171Z,17.18
2023-05-08T23:07:26.769Z,16.95
2023-05-08T23:09:53.283Z,16.93
2023-05-08T23:12:19.784Z,16.89
2023-05-08T23:14:46.404Z,16.90
2023-05-08T23:17:14.063Z,16.90
2023-05-08T23:19:42.744Z,16.87
2023-05-08T23:22:09.877Z,16.80
2023-05-08T23:24:36.755Z,16.79
2023-05-08T23:27:03.413Z,16.75
2023-05-08T23:29:29.940Z,16.71
2023-05-08T23:31:56.629Z,16.72
2023-05-08T23:34:23.214Z,16.78
2023-05-08T23:36:49.734Z,16.83
2023-05-08T23:39:16.317Z,16.90
2023-05-08T23:41:43.028Z,16.92
2023-05-08T23:44:10.353Z,16.93
2023-05-08T23:46:36.920Z,16.92
2023-05-08T23:49:05.450Z,16.89
2023-05-08T23:51:32.329Z,16.92
2023-05-08T23:53:58.944Z,16.96
2023-05-08T23:56:26.793Z,16.96
2023-05-08T23:58:53.354Z,16.93
